AirNav   Everest Fuels
 
 692 users online  

01MD Annapolis Seaplane Base
Annapolis, Maryland, USA

GOING TO ANNAPOLIS?


FAA INFORMATION EFFECTIVE 05 DECEMBER 2019

Location

FAA Identifier: 01MD
Lat/Long: 38-59-57.0000N 076-27-21.4800W
38-59.950000N 076-27.358000W
38.9991667,-76.4559667
(estimated)
Elevation: 0 ft. / 0 m
Variation: 11W (2000)
From city: 2 miles SW of ANNAPOLIS, MD
Time zone: UTC -5 (UTC -4 during Daylight Saving Time)
Zip code: 21401

Seaplane Base Operations

Seaplane Base use: Private use. Permission required prior to landing
Activation date: 12/2001
Control tower: no
ARTCC: WASHINGTON CENTER
FSS: LEESBURG FLIGHT SERVICE STATION
Attendance: UNATNDD
Wind indicator: yes
Segmented circle: no

Seaplane Base Communications

WX AWOS-3 at W29 (6 nm E): 120.575 (410-643-8795)
WX ASOS at BWI (15 nm NW): PHONE 410-691-1278
WX AWOS-3 at FME (15 nm W): 123.925
WX AWOS-3PT at MTN (20 nm N): 124.925 (410-682-8848)

Nearby radio navigation aids

VOR radial/distance  VOR name  Freq  Var
BALr148/14.1BALTIMORE VORTAC115.1011W
OTTr047/22.2NOTTINGHAM VORTAC113.7010W
ADWr069/22.4ANDREWS VORTAC113.1010W
DCAr082/28.4WASHINGTON VOR/DME111.0009W
EMIr149/38.4WESTMINSTER VORTAC117.9008W

 
NDB name  Hdg/Dist  Freq  Var  ID
ELLICOTT150/22.937111WFND ..-. -. -..
OXONN073/30.133211WDCA -.. -.-. .-
GEORGETOWN091/31.532309WGTN --. - -.
DAVEE065/36.722309WDAA -.. .- .-

Seaplane Base Services

Runway Information

Runway 16W/34W

Dimensions: 3500 x 100 ft. / 1067 x 30 m
Surface: water
RUNWAY 16W  RUNWAY 34W
Traffic pattern: leftleft
Runway heading: 171 magnetic, 160 true351 magnetic, 340 true

Seaplane Base Ownership and Management from official FAA records

Ownership: Privately-owned
Owner: MICHAEL & JULIE REISINGER
422 FOREST BEACH RD
ANNAPOLIS, MD 21401
Phone (410) 320-1025
410-320-0777 CELL
Manager: JULIE REISINGER
422 FOREST BEACH RD
ANNAPOLIS, MD 21401
Phone (410) 320-1025
410-320-0777 CELL

Additional Remarks

FOR CD CTC POTOMAC APCH AT 866-429-5882.

Instrument Procedures

There are no published instrument procedures at 01MD.

Some nearby airports with instrument procedures:

W29 - Bay Bridge Airport (6 nm E)
KANP - Lee Airport (6 nm SW)
KBWI - Baltimore/Washington International Thurgood Marshall Airport (15 nm NW)
KFME - Tipton Airport (15 nm W)
W00 - Freeway Airport (15 nm W)
KMTN - Martin State Airport (20 nm N)
 
Loc | Ops | Rwys | IFR | FBO | Links
Com | Nav | Svcs | Stats | Notes
Area around 01MD (Annapolis Seaplane Base)
 
Road maps at: MapQuest Bing Google
 
Aerial photo
WARNING: Photo may not be current or correct
Aerial photo of 01MD (Annapolis Seaplane Base)
Photo by James B. Sullivan
Photo taken 02-Oct-2010
looking north northeast.

Do you have a better or more recent aerial photo of Annapolis Seaplane Base that you would like to share? If so, please send us your photo.

 
Sectional chart

 
Airport distance calculator
Flying to Annapolis Seaplane Base? Find the distance to fly.

From to 01MD

Sunrise and sunset
Times for 14-Dec-2019
 Local
(UTC-5)
 Zulu
(UTC)
Morning civil twilight06:4811:48
Sunrise07:1812:18
Sunset16:4321:43
Evening civil twilight17:1322:13

Current date and time
Zulu (UTC)  15-Dec-2019 00:46:17
Local (UTC-5)  14-Dec-2019 19:46:17
 
METAR
KNAK 
2nm SW 
142354Z AUTO 28014G30KT 250V320 10SM BKN090 BKN110 09/02 A2948 RMK AO2 PK WND 28030/2354 PRESRR SLP983 60000 T00940017 10094 20078 53041 $
KW29 
6nm E 
150035Z AUTO 29010G18KT 10SM OVC085 08/03 A2951 RMK AO2
KBWI 
15nm NW 
142354Z 28021G27KT 10SM FEW034 BKN120 BKN200 08/02 A2946 RMK AO2 PK WND 28027/2350 SLP976 60001 T00830017 10100 20078 53040
KFME 
15nm W 
150033Z AUTO 28016G24KT 10SM OVC100 07/02 A2954 RMK AO1
KDMH 
19nm NW 
142354Z AUTO 09/02 A2945 RMK AO1 SLP972 60003 T00890017 10106 20089 51041 $
KMTN 
19nm N 
142354Z 27013G20KT 10SM SCT095 09/04 A2946
TAF
KBWI 
15nm NW 
142101Z 1421/1524 24008KT P6SM BKN015 FM142200 25008KT P6SM BKN050 FM142300 27010G20KT P6SM BKN050 FM150600 26008G16KT P6SM SCT250 FM152300 30008KT P6SM FEW200
KMTN 
19nm N 
141726Z 1418/1518 00000KT 2SM BR OVC003 FM141900 22009KT 2SM BR OVC008 FM142000 24011KT 4SM BR OVC020 FM142100 25012KT P6SM OVC045 FM142300 26014G21KT P6SM BKN060 FM150700 27011KT P6SM SCT200
NOTAMs
Click for the latest NOTAMs
NOTAMs are issued by the DoD/FAA and will open in a separate window not controlled by AirNav.

 

 
 

Would you like to see your business listed on this page?

 If your business provides an interesting product or service to pilots, flight crews, aircraft, or users of the Annapolis Seaplane Base, you should consider listing it here.  To start the listing process, click on the button below
 
Add a business
 

Other Pages about Annapolis Seaplane Base

Update a link
 
Copyright © AirNav, LLC. All rights reserved. Privacy Policy  Contact